createdAt,value
2022-09-02T00:02:25.706Z,14.76
2022-09-02T00:04:52.828Z,14.70
2022-09-02T00:07:20.052Z,14.59
2022-09-02T00:09:49.903Z,14.56
2022-09-02T00:12:17.193Z,14.53
2022-09-02T00:14:44.253Z,14.48
2022-09-02T00:17:11.905Z,14.44
2022-09-02T00:19:38.994Z,14.41
2022-09-02T00:22:06.232Z,14.40
2022-09-02T00:24:33.674Z,14.37
2022-09-02T00:27:01.294Z,14.35
2022-09-02T00:29:29.227Z,14.89
2022-09-02T00:31:57.290Z,15.03
2022-09-02T00:34:26.139Z,14.57
2022-09-02T00:36:54.163Z,14.41
2022-09-02T00:39:21.504Z,14.35
2022-09-02T00:41:49.224Z,14.30
2022-09-02T00:44:18.575Z,14.29
2022-09-02T00:46:47.484Z,14.26
2022-09-02T00:49:28.181Z,14.35
2022-09-02T00:52:05.406Z,15.31
2022-09-02T00:54:36.500Z,14.54
2022-09-02T00:57:10.333Z,14.34
2022-09-02T00:59:46.963Z,14.24
2022-09-02T01:02:14.240Z,14.19
2022-09-02T01:04:43.504Z,14.13
2022-09-02T01:07:10.791Z,14.09
2022-09-02T01:09:38.236Z,14.05
2022-09-02T01:12:05.946Z,14.01
2022-09-02T01:14:35.362Z,14.83
2022-09-02T01:17:03.915Z,15.05
2022-09-02T01:19:38.915Z,14.29
2022-09-02T01:22:28.524Z,14.04
2022-09-02T01:25:00.248Z,13.94
2022-09-02T01:27:27.762Z,13.91
2022-09-02T01:30:01.118Z,13.86
2022-09-02T01:32:30.264Z,13.79
2022-09-02T01:34:58.187Z,13.74
2022-09-02T01:37:26.859Z,13.71
2022-09-02T01:39:54.762Z,13.79
2022-09-02T01:42:22.535Z,14.66
2022-09-02T01:44:49.695Z,13.98
2022-09-02T01:47:23.285Z,13.76
2022-09-02T01:49:51.315Z,13.65
2022-09-02T01:52:21.098Z,13.62
2022-09-02T01:54:48.645Z,13.57
2022-09-02T01:57:16.059Z,13.56
2022-09-02T01:59:46.382Z,13.55
2022-09-02T02:02:20.490Z,13.51
2022-09-02T02:04:48.914Z,13.46
2022-09-02T02:07:18.921Z,14.12
2022-09-02T02:09:46.346Z,14.32
2022-09-02T02:12:16.624Z,13.72
2022-09-02T02:14:43.944Z,13.56
2022-09-02T02:17:11.834Z,13.48
2022-09-02T02:19:40.966Z,13.39
2022-09-02T02:22:08.324Z,13.36
2022-09-02T02:24:35.614Z,13.35
2022-09-02T02:27:03.263Z,13.33
2022-09-02T02:29:30.495Z,13.32
2022-09-02T02:31:58.994Z,13.72
2022-09-02T02:34:26.113Z,14.23
2022-09-02T02:36:53.658Z,13.61
2022-09-02T02:39:23.782Z,13.42
2022-09-02T02:41:51.043Z,13.33
2022-09-02T02:44:18.242Z,13.28
2022-09-02T02:46:45.762Z,13.24
2022-09-02T02:49:13.445Z,13.19
2022-09-02T02:51:42.202Z,13.16
2022-09-02T02:54:10.703Z,13.11
2022-09-02T02:56:38.257Z,13.07
2022-09-02T02:59:05.574Z,13.99
2022-09-02T03:01:34.833Z,13.51
2022-09-02T03:04:05.918Z,13.25
2022-09-02T03:06:33.394Z,13.13
2022-09-02T03:09:01.435Z,13.09
2022-09-02T03:11:29.085Z,13.05
2022-09-02T03:13:58.003Z,12.99
2022-09-02T03:16:25.800Z,12.97
2022-09-02T03:18:54.580Z,12.94
2022-09-02T03:21:21.715Z,12.90
2022-09-02T03:23:50.114Z,13.34
2022-09-02T03:26:20.244Z,13.67
2022-09-02T03:28:49.714Z,13.12
2022-09-02T03:31:21.350Z,12.96
2022-09-02T03:33:49.237Z,12.89
2022-09-02T03:36:26.334Z,12.83
2022-09-02T03:38:55.050Z,12.77
2022-09-02T03:41:23.055Z,12.74
2022-09-02T03:43:50.738Z,12.70
2022-09-02T03:46:18.927Z,12.66
2022-09-02T03:48:46.657Z,12.64
2022-09-02T03:51:14.472Z,13.56
2022-09-02T03:53:42.176Z,13.04
2022-09-02T03:56:13.120Z,12.78
2022-09-02T03:58:41.622Z,12.68
2022-09-02T04:01:13.483Z,12.61
2022-09-02T04:03:40.763Z,12.58
2022-09-02T04:06:12.957Z,12.55
2022-09-02T04:08:42.396Z,12.52
2022-09-02T04:11:11.331Z,12.48
2022-09-02T04:13:38.569Z,12.46
2022-09-02T04:16:11.314Z,13.12
2022-09-02T04:18:39.307Z,13.04
2022-09-02T04:21:07.194Z,12.66
2022-09-02T04:23:36.989Z,12.56
2022-09-02T04:26:10.803Z,12.48
2022-09-02T04:28:38.657Z,12.45
2022-09-02T04:31:12.351Z,12.41
2022-09-02T04:33:41.158Z,12.40
2022-09-02T04:36:15.311Z,12.37
2022-09-02T04:38:44.424Z,12.34
2022-09-02T04:41:25.487Z,12.32
2022-09-02T04:43:57.495Z,13.06
2022-09-02T04:46:34.089Z,12.69
2022-09-02T04:49:04.692Z,12.47
2022-09-02T04:51:33.225Z,12.41
2022-09-02T04:54:02.339Z,12.38
2022-09-02T04:56:32.591Z,12.36
2022-09-02T04:59:02.029Z,12.34
2022-09-02T05:01:34.135Z,12.30
2022-09-02T05:04:10.553Z,12.31
2022-09-02T05:06:45.568Z,12.73
2022-09-02T05:09:19.005Z,12.94
2022-09-02T05:11:52.349Z,12.57
2022-09-02T05:14:27.711Z,12.48
2022-09-02T05:16:58.187Z,12.45
2022-09-02T05:19:25.302Z,12.43
2022-09-02T05:21:56.405Z,12.45
2022-09-02T05:24:31.903Z,12.45
2022-09-02T05:27:03.709Z,12.45
2022-09-02T05:29:33.452Z,12.47
2022-09-02T05:32:01.170Z,13.08
2022-09-02T05:34:28.463Z,13.12
2022-09-02T05:36:59.142Z,12.85
2022-09-02T05:39:31.067Z,12.84
2022-09-02T05:41:58.989Z,12.87
2022-09-02T05:44:26.642Z,12.91
2022-09-02T05:46:55.974Z,12.99
2022-09-02T05:49:24.130Z,13.05
2022-09-02T05:52:02.016Z,13.13
2022-09-02T05:54:36.631Z,13.82
2022-09-02T05:57:13.769Z,13.69
2022-09-02T06:00:06.233Z,13.53
2022-09-02T06:02:44.221Z,13.49
2022-09-02T06:05:34.104Z,13.56
2022-09-02T06:08:08.983Z,13.65
2022-09-02T06:10:42.926Z,13.72
2022-09-02T06:13:12.466Z,14.51
2022-09-02T06:15:46.841Z,14.32
2022-09-02T06:18:15.472Z,14.15
2022-09-02T06:20:47.060Z,14.18
2022-09-02T06:23:16.471Z,14.77
2022-09-02T06:25:46.562Z,14.87
2022-09-02T06:28:15.874Z,14.84
2022-09-02T06:30:48.583Z,15.52
2022-09-02T06:33:19.226Z,15.00
2022-09-02T06:35:47.695Z,15.66
2022-09-02T06:38:20.144Z,15.47
2022-09-02T06:40:50.712Z,15.20
2022-09-02T06:43:22.696Z,15.51
2022-09-02T06:46:16.310Z,16.11
2022-09-02T06:48:46.118Z,15.63
2022-09-02T06:51:36.464Z,15.62
2022-09-02T06:54:08.880Z,15.64
2022-09-02T06:56:38.756Z,15.68
2022-09-02T06:59:08.074Z,16.28
2022-09-02T07:01:53.686Z,16.46
2022-09-02T07:04:42.569Z,16.19
2022-09-02T07:07:13.583Z,16.16
2022-09-02T07:09:47.503Z,16.18
2022-09-02T07:12:17.640Z,16.27
2022-09-02T07:14:51.424Z,16.35
2022-09-02T07:17:25.353Z,16.34
2022-09-02T07:20:00.512Z,16.45
2022-09-02T07:22:31.557Z,16.46
2022-09-02T07:25:01.092Z,16.60
2022-09-02T07:27:28.550Z,16.69
2022-09-02T07:29:58.917Z,16.80
2022-09-02T07:32:27.018Z,16.85
2022-09-02T07:34:54.473Z,16.86
2022-09-02T07:37:21.716Z,16.93
2022-09-02T07:39:53.335Z,17.60
2022-09-02T07:42:20.987Z,17.54
2022-09-02T07:44:48.754Z,17.38
2022-09-02T07:47:17.340Z,17.49
2022-09-02T07:52:35.028Z,18.11
2022-09-02T07:55:02.873Z,17.91
2022-09-02T07:57:32.055Z,18.94
2022-09-02T07:59:59.572Z,18.39
2022-09-02T08:02:28.598Z,18.21
2022-09-02T08:04:55.963Z,18.54
2022-09-02T08:07:24.577Z,19.30
2022-09-02T08:09:53.251Z,18.78
2022-09-02T08:12:22.328Z,18.57
2022-09-02T08:14:49.994Z,18.60
2022-09-02T08:17:18.162Z,18.76
2022-09-02T08:19:45.454Z,18.98
2022-09-02T08:22:12.845Z,19.66
2022-09-02T08:24:40.313Z,19.18
2022-09-02T08:27:07.867Z,19.15
2022-09-02T08:29:35.447Z,19.16
2022-09-02T08:32:03.354Z,19.27
2022-09-02T08:34:30.902Z,19.30
2022-09-02T08:36:58.208Z,19.36
2022-09-02T08:39:26.243Z,19.39
2022-09-02T08:41:53.559Z,20.38
2022-09-02T08:44:24.268Z,20.03
2022-09-02T08:47:02.214Z,19.76
2022-09-02T08:49:36.415Z,19.82
2022-09-02T08:52:05.637Z,19.89
2022-09-02T08:54:48.953Z,19.88
2022-09-02T08:57:16.075Z,20.07
2022-09-02T08:59:49.331Z,20.98
2022-09-02T09:02:30.282Z,20.44
2022-09-02T09:05:12.828Z,20.34
2022-09-02T09:08:14.036Z,20.36
2022-09-02T09:11:05.355Z,20.88
2022-09-02T09:13:53.897Z,20.93
2022-09-02T09:16:46.619Z,20.73
2022-09-02T09:19:36.784Z,20.73
2022-09-02T09:22:05.523Z,20.73
2022-09-02T09:24:38.378Z,20.77
2022-09-02T09:27:12.984Z,21.55
2022-09-02T09:29:40.671Z,21.29
2022-09-02T09:32:33.701Z,21.11
2022-09-02T09:35:03.273Z,20.80
2022-09-02T09:37:42.339Z,20.96
2022-09-02T09:40:18.567Z,21.54
2022-09-02T09:42:49.679Z,21.23
2022-09-02T09:45:28.020Z,20.90
2022-09-02T09:48:16.532Z,20.83
2022-09-02T09:50:45.413Z,20.91
2022-09-02T09:53:21.102Z,20.89
2022-09-02T09:55:55.569Z,21.53
2022-09-02T09:58:47.079Z,21.67
2022-09-02T10:01:18.433Z,21.28
2022-09-02T10:03:57.363Z,21.22
2022-09-02T10:06:31.165Z,21.28
2022-09-02T10:09:15.612Z,21.73
2022-09-02T10:12:08.497Z,21.94
2022-09-02T10:14:45.997Z,21.59
2022-09-02T10:17:22.394Z,21.55
2022-09-02T10:20:16.865Z,21.43
2022-09-02T10:23:00.645Z,21.42
2022-09-02T10:25:45.267Z,22.23
2022-09-02T10:28:31.513Z,21.84
2022-09-02T10:31:45.406Z,21.79
2022-09-02T10:34:21.429Z,21.70
2022-09-02T10:37:18.131Z,21.75
2022-09-02T10:39:51.221Z,22.36
2022-09-02T10:42:18.322Z,21.99
2022-09-02T10:44:58.357Z,21.82
2022-09-02T10:47:37.926Z,22.31
2022-09-02T10:50:53.635Z,22.53
2022-09-02T10:53:42.356Z,22.08
2022-09-02T10:56:18.552Z,21.93
2022-09-02T10:59:14.589Z,21.64
2022-09-02T11:01:54.883Z,22.55
2022-09-02T11:04:40.554Z,22.29
2022-09-02T11:07:17.212Z,21.76
2022-09-02T11:09:58.658Z,21.70
2022-09-02T11:12:45.679Z,21.77
2022-09-02T11:15:42.234Z,22.00
2022-09-02T11:18:32.221Z,22.62
2022-09-02T11:21:31.878Z,22.02
2022-09-02T11:24:16.208Z,21.98
2022-09-02T11:27:01.992Z,21.93
2022-09-02T11:29:45.556Z,21.81
2022-09-02T11:32:32.261Z,22.91
2022-09-02T11:35:03.611Z,22.32
2022-09-02T11:37:40.555Z,22.08
2022-09-02T11:40:36.805Z,22.08
2022-09-02T11:43:45.110Z,22.24
2022-09-02T11:46:46.646Z,22.84
2022-09-02T11:49:30.344Z,22.33
2022-09-02T11:52:17.803Z,22.26
2022-09-02T11:54:51.514Z,22.28
2022-09-02T11:57:26.034Z,22.83
2022-09-02T11:59:53.221Z,22.98
2022-09-02T12:02:36.110Z,22.63
2022-09-02T12:05:35.865Z,22.53
2022-09-02T12:08:06.034Z,22.43
2022-09-02T12:10:49.123Z,22.64
2022-09-02T12:16:36.840Z,22.69
2022-09-02T12:19:11.426Z,22.57
2022-09-02T12:22:16.762Z,22.61
2022-09-02T12:24:55.710Z,23.75
2022-09-02T12:27:32.212Z,23.34
2022-09-02T12:29:59.981Z,22.90
2022-09-02T12:32:46.275Z,22.84
2022-09-02T12:35:31.654Z,22.86
2022-09-02T12:38:29.721Z,23.97
2022-09-02T12:40:59.905Z,23.90
2022-09-02T12:43:33.702Z,23.29
2022-09-02T12:46:24.853Z,23.27
2022-09-02T12:49:03.633Z,24.24
2022-09-02T12:51:57.383Z,23.67
2022-09-02T12:54:28.385Z,23.37
2022-09-02T12:56:55.965Z,23.36
2022-09-02T12:59:30.303Z,23.67
2022-09-02T13:02:20.402Z,24.44
2022-09-02T13:05:23.155Z,23.66
2022-09-02T13:08:37.677Z,23.57
2022-09-02T13:11:26.806Z,23.61
2022-09-02T13:14:28.007Z,25.36
2022-09-02T13:17:35.706Z,24.18
2022-09-02T13:20:37.775Z,23.97
2022-09-02T13:23:35.455Z,23.93
2022-09-02T13:26:32.882Z,25.17
2022-09-02T13:29:46.753Z,24.14
2022-09-02T13:32:22.949Z,23.98
2022-09-02T13:34:55.304Z,25.05
2022-09-02T13:37:43.335Z,25.64
2022-09-02T13:40:25.570Z,24.42
2022-09-02T13:42:56.281Z,24.24
2022-09-02T13:45:28.998Z,24.22
2022-09-02T13:48:03.026Z,24.31
2022-09-02T13:50:32.083Z,26.07
2022-09-02T13:55:55.871Z,25.18
2022-09-02T13:58:28.931Z,25.17
2022-09-02T14:01:01.922Z,24.69
2022-09-02T14:03:33.086Z,24.47
2022-09-02T14:06:02.032Z,24.55
2022-09-02T14:08:31.826Z,25.46
2022-09-02T14:11:01.416Z,25.37
2022-09-02T14:13:30.485Z,24.56
2022-09-02T14:16:26.910Z,24.55
2022-09-02T14:19:08.454Z,24.54
2022-09-02T14:21:37.390Z,25.00
2022-09-02T14:24:05.904Z,24.83
2022-09-02T14:26:38.811Z,24.60
2022-09-02T14:29:07.985Z,24.64
2022-09-02T14:31:38.057Z,25.31
2022-09-02T14:34:25.179Z,25.95
2022-09-02T14:36:52.635Z,25.00
2022-09-02T14:39:20.125Z,24.89
2022-09-02T14:41:52.781Z,24.64
2022-09-02T14:44:34.319Z,25.54
2022-09-02T14:47:07.349Z,24.76
2022-09-02T14:49:52.234Z,24.62
2022-09-02T14:52:25.051Z,24.30
2022-09-02T14:54:54.662Z,25.76
2022-09-02T14:57:32.623Z,24.96
2022-09-02T15:00:12.133Z,24.62
2022-09-02T15:02:42.928Z,24.37
2022-09-02T15:05:14.982Z,24.46
2022-09-02T15:07:42.867Z,25.61
2022-09-02T15:10:10.690Z,24.76
2022-09-02T15:12:47.072Z,24.61
2022-09-02T15:15:14.372Z,24.78
2022-09-02T15:17:42.104Z,25.66
2022-09-02T15:20:10.959Z,25.79
2022-09-02T15:22:39.016Z,26.04
2022-09-02T15:25:10.973Z,26.43
2022-09-02T15:27:38.403Z,26.68
2022-09-02T15:30:09.508Z,26.99
2022-09-02T15:32:38.125Z,27.20
2022-09-02T15:35:07.831Z,25.98
2022-09-02T15:37:38.083Z,25.40
2022-09-02T15:40:07.914Z,25.14
2022-09-02T15:42:36.894Z,25.14
2022-09-02T15:45:09.960Z,25.79
2022-09-02T15:47:42.676Z,25.21
2022-09-02T15:50:10.320Z,25.13
2022-09-02T15:52:40.892Z,25.16
2022-09-02T15:55:08.530Z,26.97
2022-09-02T15:57:35.798Z,25.83
2022-09-02T16:00:06.125Z,25.04
2022-09-02T16:02:42.752Z,26.30
2022-09-02T16:05:14.300Z,25.99
2022-09-02T16:07:41.556Z,25.24
2022-09-02T16:10:09.819Z,24.93
2022-09-02T16:12:37.037Z,26.95
2022-09-02T16:15:04.764Z,25.69
2022-09-02T16:17:32.333Z,25.08
2022-09-02T16:19:59.825Z,24.69
2022-09-02T16:22:27.184Z,26.21
2022-09-02T16:24:54.733Z,25.81
2022-09-02T16:27:42.141Z,25.03
2022-09-02T16:30:09.622Z,24.69
2022-09-02T16:32:38.579Z,24.85
2022-09-02T16:35:06.759Z,26.64
2022-09-02T16:37:34.070Z,25.21
2022-09-02T16:40:01.560Z,24.79
2022-09-02T16:42:32.043Z,24.52
2022-09-02T16:45:01.050Z,26.32
2022-09-02T16:47:28.700Z,25.31
2022-09-02T16:49:56.264Z,24.59
2022-09-02T16:52:23.782Z,24.35
2022-09-02T16:54:51.246Z,25.58
2022-09-02T16:57:18.468Z,25.42
2022-09-02T16:59:45.897Z,24.48
2022-09-02T17:02:15.616Z,24.80
2022-09-02T17:04:42.956Z,25.59
2022-09-02T17:07:10.462Z,24.35
2022-09-02T17:09:38.094Z,23.92
2022-09-02T17:12:05.671Z,23.64
2022-09-02T17:14:33.003Z,23.51
2022-09-02T17:17:00.821Z,25.30
2022-09-02T17:19:32.035Z,24.15
2022-09-02T17:21:59.804Z,23.43
2022-09-02T17:24:31.824Z,23.12
2022-09-02T17:27:00.711Z,22.94
2022-09-02T17:32:23.033Z,23.38
2022-09-02T17:34:51.202Z,22.88
2022-09-02T17:37:19.930Z,22.60
2022-09-02T17:39:50.301Z,22.44
2022-09-02T17:42:17.898Z,23.82
2022-09-02T17:44:45.415Z,22.99
2022-09-02T17:47:16.054Z,22.39
2022-09-02T17:49:46.644Z,22.13
2022-09-02T17:52:16.854Z,22.00
2022-09-02T17:54:44.074Z,21.86
2022-09-02T17:57:30.312Z,23.86
2022-09-02T17:59:59.514Z,22.73
2022-09-02T18:02:40.704Z,21.93
2022-09-02T18:05:10.804Z,21.60
2022-09-02T18:08:03.467Z,21.41
2022-09-02T18:10:40.104Z,23.35
2022-09-02T18:13:14.872Z,21.94
2022-09-02T18:16:03.749Z,21.40
2022-09-02T18:18:31.209Z,21.16
2022-09-02T18:21:24.164Z,20.93
2022-09-02T18:24:09.707Z,20.78
2022-09-02T18:26:55.640Z,20.64
2022-09-02T18:29:57.221Z,22.38
2022-09-02T18:32:34.666Z,21.00
2022-09-02T18:35:27.553Z,20.52
2022-09-02T18:38:28.512Z,20.26
2022-09-02T18:41:08.192Z,20.06
2022-09-02T18:43:58.985Z,19.97
2022-09-02T18:46:32.964Z,20.52
2022-09-02T18:49:03.348Z,21.16
2022-09-02T18:51:43.343Z,19.97
2022-09-02T18:54:23.262Z,19.60
2022-09-02T18:56:59.083Z,19.48
2022-09-02T18:59:39.211Z,19.40
2022-09-02T19:02:36.374Z,19.35
2022-09-02T19:05:10.551Z,19.22
2022-09-02T19:07:57.013Z,19.12
2022-09-02T19:10:24.298Z,19.03
2022-09-02T19:12:52.232Z,19.98
2022-09-02T19:15:20.159Z,20.12
2022-09-02T19:17:49.795Z,19.26
2022-09-02T19:20:18.576Z,18.98
2022-09-02T19:22:51.936Z,18.84
2022-09-02T19:25:23.376Z,18.75
2022-09-02T19:27:55.102Z,18.68
2022-09-02T19:30:25.933Z,18.59
2022-09-02T19:32:57.374Z,18.53
2022-09-02T19:35:28.142Z,18.48
2022-09-02T19:37:55.742Z,18.41
2022-09-02T19:40:33.230Z,18.34
2022-09-02T19:43:03.603Z,19.63
2022-09-02T19:45:36.301Z,19.07
2022-09-02T19:48:07.569Z,18.55
2022-09-02T19:50:42.413Z,18.34
2022-09-02T19:53:12.833Z,18.23
2022-09-02T19:55:40.112Z,18.13
2022-09-02T19:58:07.467Z,18.06
2022-09-02T20:00:34.911Z,18.41
2022-09-02T20:03:05.510Z,19.43
2022-09-02T20:05:32.769Z,18.45
2022-09-02T20:08:00.001Z,18.10
2022-09-02T20:10:27.759Z,17.95
2022-09-02T20:12:55.624Z,17.84
2022-09-02T20:15:23.157Z,17.75
2022-09-02T20:17:50.948Z,17.68
2022-09-02T20:20:22.031Z,18.02
2022-09-02T20:22:55.480Z,18.72
2022-09-02T20:25:31.439Z,17.93
2022-09-02T20:28:28.163Z,17.68
2022-09-02T20:31:10.382Z,17.54
2022-09-02T20:33:50.350Z,17.45
2022-09-02T20:36:36.415Z,17.38
2022-09-02T20:39:23.881Z,17.31
2022-09-02T20:42:19.961Z,17.43
2022-09-02T20:44:55.125Z,18.46
2022-09-02T20:47:47.390Z,17.51
2022-09-02T20:50:53.802Z,17.26
2022-09-02T20:53:20.943Z,17.14
2022-09-02T20:55:59.188Z,17.09
2022-09-02T20:58:40.515Z,17.02
2022-09-02T21:01:20.765Z,16.92
2022-09-02T21:04:02.097Z,16.86
2022-09-02T21:06:34.513Z,17.96
2022-09-02T21:09:33.469Z,17.56
2022-09-02T21:12:36.796Z,17.02
2022-09-02T21:15:39.175Z,16.81
2022-09-02T21:18:19.731Z,16.68
2022-09-02T21:20:53.974Z,16.59
2022-09-02T21:23:45.674Z,16.56
2022-09-02T21:26:36.393Z,16.50
2022-09-02T21:29:22.039Z,16.48
2022-09-02T21:31:56.830Z,17.57
2022-09-02T21:34:36.070Z,16.78
2022-09-02T21:37:04.504Z,16.54
2022-09-02T21:39:38.157Z,16.42
2022-09-02T21:42:11.391Z,16.34
2022-09-02T21:45:16.534Z,16.25
2022-09-02T21:48:06.860Z,16.17
2022-09-02T21:50:56.565Z,16.41
2022-09-02T21:53:53.854Z,17.13
2022-09-02T21:56:49.212Z,16.36
2022-09-02T21:59:23.374Z,16.16
2022-09-02T22:01:56.194Z,16.05
2022-09-02T22:04:44.697Z,15.98
2022-09-02T22:07:22.656Z,15.89
2022-09-02T22:10:03.962Z,15.81
2022-09-02T22:12:38.153Z,16.05
2022-09-02T22:15:22.492Z,16.82
2022-09-02T22:17:56.520Z,15.99
2022-09-02T22:20:32.225Z,15.77
2022-09-02T22:23:05.865Z,15.65
2022-09-02T22:25:38.285Z,15.57
2022-09-02T22:28:06.708Z,15.52
2022-09-02T22:30:39.418Z,15.49
2022-09-02T22:33:12.273Z,15.47
2022-09-02T22:35:54.179Z,15.55
2022-09-02T22:38:47.241Z,16.47
2022-09-02T22:41:25.018Z,15.71
2022-09-02T22:44:10.145Z,15.53
2022-09-02T22:47:22.657Z,15.43
2022-09-02T22:50:16.354Z,15.40
2022-09-02T22:52:49.754Z,15.36
2022-09-02T22:55:22.982Z,15.35
2022-09-02T22:58:13.325Z,16.20
2022-09-02T23:00:55.748Z,15.97
2022-09-02T23:03:32.649Z,15.55
2022-09-02T23:06:16.211Z,15.45
2022-09-02T23:08:44.458Z,15.40
2022-09-02T23:11:31.108Z,15.36
2022-09-02T23:14:12.739Z,15.34
2022-09-02T23:17:14.200Z,15.31
2022-09-02T23:19:59.251Z,15.96
2022-09-02T23:22:42.152Z,16.70
2022-09-02T23:25:30.993Z,15.81
2022-09-02T23:28:13.588Z,17.19
2022-09-02T23:31:19.799Z,15.95
2022-09-02T23:33:53.013Z,15.71
2022-09-02T23:36:47.836Z,16.19
2022-09-02T23:39:23.868Z,16.75
2022-09-02T23:41:53.555Z,15.96
2022-09-02T23:44:20.893Z,15.78
2022-09-02T23:47:07.913Z,15.71
2022-09-02T23:49:43.831Z,15.67
2022-09-02T23:52:25.384Z,15.65
2022-09-02T23:55:12.435Z,15.64
2022-09-02T23:57:57.524Z,15.62
